Time;durP1;ratioP1;P1;durP2;ratioP2;P2;SDS_P1;SDS_P2;PMS_P1;PMS_P2;Temp;Humidity;BMP_temperature;BMP_pressure;BME280_temperature;BME280_humidity;BME280_pressure;Samples;Min_cycle;Max_cycle;Signal;HPM_P1;HPM_P2
2022/12/07 00:01:10;;;;;;;19.60;10.85;;;2.00;99.90;;;;;;5073363;28;20119;-65
2022/12/07 00:03:37;;;;;;;20.90;10.52;;;2.00;99.90;;;;;;5078380;28;20032;-65
2022/12/07 00:06:04;;;;;;;18.92;9.15;;;2.00;99.90;;;;;;5073554;28;20028;-65
2022/12/07 00:08:30;;;;;;;18.65;10.32;;;1.90;99.90;;;;;;5076718;28;20052;-65
2022/12/07 00:11:08;;;;;;;20.75;10.52;;;1.90;99.90;;;;;;5079172;28;20050;-63
2022/12/07 00:13:34;;;;;;;20.92;10.65;;;1.90;99.90;;;;;;5071434;28;20031;-65
2022/12/07 00:16:09;;;;;;;22.05;11.10;;;1.80;99.90;;;;;;5075119;28;20083;-65
2022/12/07 00:18:36;;;;;;;21.55;10.73;;;1.90;99.90;;;;;;5066884;28;20097;-65
2022/12/07 00:21:09;;;;;;;18.60;10.07;;;2.00;99.90;;;;;;5067901;28;20085;-65
2022/12/07 00:23:34;;;;;;;22.00;11.55;;;2.00;99.90;;;;;;5066123;28;20438;-65
2022/12/07 00:26:09;;;;;;;20.88;11.07;;;2.00;99.90;;;;;;5071169;28;20103;-66
2022/12/07 00:28:35;;;;;;;21.08;10.15;;;2.00;99.90;;;;;;5073601;28;20029;-64
2022/12/07 00:31:06;;;;;;;18.63;10.65;;;2.10;99.90;;;;;;5079563;28;20205;-64
2022/12/07 00:33:33;;;;;;;22.90;10.50;;;2.00;99.90;;;;;;5071902;28;20029;-64
2022/12/07 00:36:00;;;;;;;18.42;10.15;;;2.00;99.90;;;;;;5071625;28;20396;-64
2022/12/07 00:38:29;;;;;;;19.20;9.35;;;2.10;99.90;;;;;;5069914;28;20077;-64
2022/12/07 00:40:59;;;;;;;22.90;9.45;;;2.10;99.90;;;;;;5075125;28;20399;-66
2022/12/07 00:43:25;;;;;;;18.33;10.32;;;2.10;99.90;;;;;;5064065;28;20051;-65
2022/12/07 00:45:52;;;;;;;19.13;10.07;;;2.00;99.90;;;;;;5071181;28;20021;-65
2022/12/07 00:48:18;;;;;;;18.65;10.00;;;2.00;99.90;;;;;;5070105;28;20091;-65
2022/12/07 00:50:44;;;;;;;17.75;9.30;;;2.10;99.90;;;;;;5078856;28;20109;-65
2022/12/07 00:53:10;;;;;;;15.50;9.75;;;2.00;99.90;;;;;;5074965;28;20063;-65
2022/12/07 00:55:36;;;;;;;20.25;10.30;;;1.90;99.90;;;;;;5070620;28;20040;-64
2022/12/07 00:58:02;;;;;;;20.15;11.02;;;1.90;99.90;;;;;;5071409;28;20669;-65
2022/12/07 01:00:28;;;;;;;21.70;11.57;;;2.10;99.90;;;;;;5070475;28;20031;-65
2022/12/07 01:02:54;;;;;;;21.27;10.50;;;2.20;99.90;;;;;;5071114;28;20032;-64
2022/12/07 01:05:20;;;;;;;22.02;12.20;;;2.30;99.90;;;;;;5075186;28;20032;-65
2022/12/07 01:07:46;;;;;;;24.85;12.13;;;2.30;99.90;;;;;;5079935;28;20034;-65
2022/12/07 01:10:14;;;;;;;24.00;12.10;;;2.30;99.90;;;;;;5074150;28;20064;-65
2022/12/07 01:12:40;;;;;;;23.27;11.45;;;2.20;99.90;;;;;;5069932;28;20122;-65
2022/12/07 01:15:07;;;;;;;25.83;11.15;;;2.20;99.90;;;;;;5071349;28;20043;-65
2022/12/07 01:17:33;;;;;;;20.25;11.30;;;2.10;99.90;;;;;;5060773;28;20032;-65
2022/12/07 01:20:00;;;;;;;26.27;11.40;;;2.10;99.90;;;;;;5064976;28;20024;-65
2022/12/07 01:22:26;;;;;;;25.77;12.05;;;2.00;99.90;;;;;;5060656;28;20056;-64
2022/12/07 01:24:52;;;;;;;21.00;10.38;;;2.00;99.90;;;;;;5078940;28;20016;-65
2022/12/07 01:27:18;;;;;;;18.02;10.60;;;2.00;99.90;;;;;;5069284;28;20031;-66
2022/12/07 01:29:44;;;;;;;26.75;12.43;;;2.00;99.90;;;;;;5071639;28;20020;-65
2022/12/07 01:32:10;;;;;;;19.88;10.70;;;2.00;99.90;;;;;;5069537;28;20111;-65
2022/12/07 01:34:36;;;;;;;20.02;10.45;;;2.10;99.90;;;;;;5068656;28;20123;-65
2022/12/07 01:37:02;;;;;;;23.80;10.52;;;2.20;99.90;;;;;;5066028;28;20475;-65
2022/12/07 01:39:28;;;;;;;20.95;11.05;;;2.20;99.90;;;;;;5069440;28;20111;-65
2022/12/07 01:41:53;;;;;;;26.65;10.82;;;2.10;99.90;;;;;;5072205;28;20028;-65
2022/12/07 01:44:25;;;;;;;22.80;10.32;;;2.00;99.90;;;;;;5069374;28;20024;-64
2022/12/07 01:46:56;;;;;;;19.47;10.43;;;2.00;99.90;;;;;;5072193;28;20102;-64
2022/12/07 01:49:42;;;;;;;23.73;10.77;;;2.10;99.90;;;;;;5068062;28;20384;-65
2022/12/07 01:52:17;;;;;;;20.25;11.07;;;2.00;99.90;;;;;;5071388;28;20031;-65
2022/12/07 01:54:45;;;;;;;20.70;9.48;;;2.00;99.90;;;;;;5075184;28;20134;-65
2022/12/07 01:57:14;;;;;;;18.02;10.07;;;2.00;99.90;;;;;;5071692;28;20373;-65
2022/12/07 01:59:42;;;;;;;26.17;10.65;;;1.90;99.90;;;;;;5071687;28;20506;-65
2022/12/07 02:02:18;;;;;;;27.58;11.10;;;1.90;99.90;;;;;;5067696;28;20103;-64
2022/12/07 02:04:45;;;;;;;20.92;10.85;;;1.90;99.90;;;;;;5053695;28;20496;-65
2022/12/07 02:07:11;;;;;;;25.15;11.27;;;2.00;99.90;;;;;;5065952;28;20096;-65
2022/12/07 02:09:36;;;;;;;20.80;10.43;;;2.00;99.90;;;;;;5071622;28;20503;-65
2022/12/07 02:12:03;;;;;;;23.80;10.65;;;2.10;99.90;;;;;;5071625;28;20028;-64
2022/12/07 02:14:29;;;;;;;24.20;9.85;;;2.20;99.90;;;;;;5071550;28;20082;-65
2022/12/07 02:17:16;;;;;;;19.95;9.95;;;2.20;99.90;;;;;;5071305;28;20032;-64
2022/12/07 02:19:53;;;;;;;21.70;9.43;;;2.20;99.90;;;;;;5071596;28;20095;-65
2022/12/07 02:23:00;;;;;;;19.67;9.85;;;2.20;99.90;;;;;;5069354;28;20055;-65
2022/12/07 02:25:51;;;;;;;18.25;9.07;;;2.30;99.90;;;;;;5064105;28;20469;-65
2022/12/07 02:28:27;;;;;;;17.40;9.60;;;2.20;99.90;;;;;;5059725;28;20024;-65
2022/12/07 02:30:57;;;;;;;21.92;10.27;;;2.20;99.90;;;;;;5071062;28;20035;-65
2022/12/07 02:33:29;;;;;;;20.73;9.65;;;2.20;99.90;;;;;;5070013;28;20471;-65
2022/12/07 02:36:04;;;;;;;;;;;2.20;99.90;;;;;;5064517;28;20050;-66
2022/12/07 02:38:39;;;;;;;20.35;8.95;;;2.30;99.90;;;;;;5056132;28;19909;-65
2022/12/07 02:41:17;;;;;;;20.80;9.18;;;2.40;99.90;;;;;;5084326;28;20032;-66
2022/12/07 02:43:47;;;;;;;21.35;10.60;;;2.50;99.90;;;;;;5073004;28;20020;-65
2022/12/07 02:46:22;;;;;;;21.92;10.18;;;2.60;99.90;;;;;;5065461;28;20032;-66
2022/12/07 02:48:51;;;;;;;19.83;9.23;;;2.70;99.90;;;;;;5070110;28;20020;-65
2022/12/07 02:51:18;;;;;;;22.70;9.60;;;2.70;99.90;;;;;;5068540;28;20037;-66
2022/12/07 02:53:45;;;;;;;26.88;10.27;;;2.70;99.90;;;;;;5073044;28;20020;-65
2022/12/07 02:56:43;;;;;;;22.27;10.10;;;2.90;99.90;;;;;;5067665;28;20433;-64
2022/12/07 02:59:30;;;;;;;18.08;9.13;;;2.90;99.90;;;;;;5063256;28;20115;-65
2022/12/07 03:02:17;;;;;;;21.77;9.38;;;2.90;99.90;;;;;;5071629;28;20373;-64
2022/12/07 03:05:17;;;;;;;22.63;9.13;;;2.80;99.90;;;;;;5070374;28;20069;-65
2022/12/07 03:08:07;;;;;;;22.60;9.07;;;2.60;99.90;;;;;;5056079;28;20029;-66
2022/12/07 03:10:56;;;;;;;14.23;8.15;;;2.60;99.90;;;;;;5066338;28;20502;-66
2022/12/07 03:13:45;;;;;;;21.85;8.68;;;2.40;99.90;;;;;;5063026;28;20029;-65
2022/12/07 03:16:31;;;;;;;17.35;8.07;;;2.10;99.90;;;;;;5062768;28;20032;-66
2022/12/07 03:19:07;;;;;;;14.50;8.23;;;2.00;99.90;;;;;;5071208;28;20017;-65
2022/12/07 03:21:40;;;;;;;13.35;8.13;;;1.90;99.90;;;;;;5076070;28;20053;-65
2022/12/07 03:24:14;;;;;;;14.73;7.95;;;1.90;99.90;;;;;;5068845;28;20111;-63
2022/12/07 03:26:55;;;;;;;15.32;8.27;;;1.90;99.90;;;;;;5068885;28;20020;-65
2022/12/07 03:29:46;;;;;;;18.30;7.65;;;1.80;99.90;;;;;;5056170;28;20111;-64
2022/12/07 03:32:35;;;;;;;11.88;6.78;;;1.80;99.90;;;;;;5067279;28;20085;-66
2022/12/07 03:35:23;;;;;;;18.80;7.82;;;1.60;99.90;;;;;;5066158;28;20442;-65
2022/12/07 03:38:08;;;;;;;16.88;7.43;;;1.60;99.90;;;;;;5058397;28;20037;-65
2022/12/07 03:40:42;;;;;;;16.23;7.95;;;1.60;99.90;;;;;;5062571;28;20063;-65
2022/12/07 03:43:08;;;;;;;16.65;6.15;;;1.50;99.90;;;;;;5069651;28;20060;-65
2022/12/07 03:45:43;;;;;;;12.38;6.72;;;1.40;99.90;;;;;;5070258;28;20024;-64
2022/12/07 03:48:22;;;;;;;16.15;7.25;;;1.50;99.90;;;;;;5069295;28;20032;-65
2022/12/07 03:50:56;;;;;;;12.70;6.85;;;1.50;99.90;;;;;;5063337;28;20020;-65
2022/12/07 03:53:56;;;;;;;16.45;7.03;;;1.50;99.90;;;;;;5065114;28;20104;-65
2022/12/07 03:56:23;;;;;;;12.90;6.43;;;1.50;99.90;;;;;;5069918;28;20102;-65
2022/12/07 03:58:49;;;;;;;15.45;6.43;;;1.40;99.90;;;;;;5077185;28;20052;-65
2022/12/07 04:01:17;;;;;;;14.95;6.90;;;1.50;99.90;;;;;;5070946;28;20028;-64
2022/12/07 04:03:43;;;;;;;12.10;6.07;;;1.50;99.90;;;;;;5079777;28;20028;-64
2022/12/07 04:06:08;;;;;;;12.52;6.63;;;1.40;99.90;;;;;;5072506;28;20024;-65
2022/12/07 04:08:34;;;;;;;17.05;6.45;;;1.40;99.90;;;;;;5071275;28;20029;-64
2022/12/07 04:11:00;;;;;;;15.20;6.28;;;1.40;99.90;;;;;;5068329;28;20450;-65
2022/12/07 04:13:26;;;;;;;13.73;6.82;;;1.40;99.90;;;;;;5069884;28;20025;-65
2022/12/07 04:15:52;;;;;;;15.73;6.63;;;1.40;99.90;;;;;;5071662;28;20044;-65
2022/12/07 04:18:18;;;;;;;14.20;6.35;;;1.40;99.90;;;;;;5070930;28;20081;-65
2022/12/07 04:20:45;;;;;;;17.15;7.40;;;1.40;99.90;;;;;;5072591;28;20122;-65
2022/12/07 04:23:11;;;;;;;13.38;6.47;;;1.50;99.90;;;;;;5072512;28;20040;-65
2022/12/07 04:25:36;;;;;;;12.63;6.80;;;1.60;99.90;;;;;;5066270;28;20063;-65
2022/12/07 04:28:02;;;;;;;15.68;7.38;;;1.60;99.90;;;;;;5073975;28;20029;-65
2022/12/07 04:30:28;;;;;;;20.98;7.25;;;1.60;99.90;;;;;;5074115;28;20380;-64
2022/12/07 04:32:54;;;;;;;11.68;6.80;;;1.60;99.90;;;;;;5072311;28;20021;-64
2022/12/07 04:35:20;;;;;;;13.68;6.85;;;1.70;99.90;;;;;;5072252;28;20032;-65
2022/12/07 04:37:46;;;;;;;12.25;7.22;;;1.70;99.90;;;;;;5075225;28;20027;-64
2022/12/07 04:40:14;;;;;;;13.95;6.72;;;1.80;99.90;;;;;;5071505;28;20039;-64
2022/12/07 04:42:39;;;;;;;12.82;7.10;;;1.80;99.90;;;;;;5071011;28;20115;-64
2022/12/07 04:45:06;;;;;;;17.50;8.18;;;1.90;99.90;;;;;;5076546;28;20104;-65
2022/12/07 04:47:32;;;;;;;15.07;8.23;;;2.00;99.90;;;;;;5069628;28;20027;-65
2022/12/07 04:49:58;;;;;;;21.40;9.38;;;2.20;99.90;;;;;;5071703;28;20016;-65
2022/12/07 04:52:23;;;;;;;17.48;8.77;;;2.30;99.90;;;;;;5069730;28;20115;-65
2022/12/07 04:54:49;;;;;;;18.77;9.10;;;2.30;99.90;;;;;;5078229;28;20068;-65
2022/12/07 04:57:15;;;;;;;26.73;10.30;;;2.40;99.90;;;;;;5074409;28;20486;-64
2022/12/07 04:59:41;;;;;;;23.27;9.60;;;2.40;99.90;;;;;;5069903;28;20393;-65
2022/12/07 05:02:07;;;;;;;18.55;9.60;;;2.40;99.90;;;;;;5071707;28;20028;-65
2022/12/07 05:04:33;;;;;;;16.05;9.65;;;2.40;99.90;;;;;;5072405;28;20500;-65
2022/12/07 05:06:58;;;;;;;19.50;10.18;;;2.40;99.90;;;;;;5073739;28;20052;-65
2022/12/07 05:09:24;;;;;;;20.88;9.35;;;2.40;99.90;;;;;;5073961;28;20428;-66
2022/12/07 05:11:50;;;;;;;19.80;9.25;;;2.40;99.90;;;;;;5062570;28;20116;-65
2022/12/07 05:14:20;;;;;;;22.02;9.82;;;2.50;99.90;;;;;;5069389;28;20049;-65
2022/12/07 05:16:48;;;;;;;25.30;9.93;;;2.50;99.90;;;;;;5070262;28;20025;-65
2022/12/07 05:19:14;;;;;;;17.17;9.25;;;2.50;99.90;;;;;;5063252;28;20028;-62
2022/12/07 05:21:40;;;;;;;24.02;10.18;;;2.60;99.90;;;;;;5067758;28;20534;-64
2022/12/07 05:24:08;;;;;;;22.08;10.30;;;2.60;99.90;;;;;;5072552;28;20066;-66
2022/12/07 05:26:34;;;;;;;21.55;10.38;;;2.50;99.90;;;;;;5072801;28;20028;-66
2022/12/07 05:29:00;;;;;;;21.30;9.50;;;2.50;99.90;;;;;;5077794;28;20024;-65
2022/12/07 05:31:27;;;;;;;23.92;9.52;;;2.50;99.90;;;;;;5071726;28;20514;-66
2022/12/07 05:33:53;;;;;;;16.50;8.48;;;2.50;99.90;;;;;;5071601;28;20027;-66
2022/12/07 05:36:19;;;;;;;20.80;9.60;;;2.40;99.90;;;;;;5073651;28;20039;-66
2022/12/07 05:38:45;;;;;;;20.98;9.52;;;2.50;99.90;;;;;;5071546;28;20021;-65
2022/12/07 05:44:00;;;;;;;19.33;8.98;;;2.40;99.90;;;;;;5071091;28;20135;-65
2022/12/07 05:46:26;;;;;;;17.80;9.43;;;2.40;99.90;;;;;;5069450;28;20020;-65
2022/12/07 05:48:52;;;;;;;20.23;9.02;;;2.30;99.90;;;;;;5072770;28;20028;-65
2022/12/07 05:51:19;;;;;;;19.10;8.77;;;2.30;99.90;;;;;;5071021;28;20035;-65
2022/12/07 05:53:45;;;;;;;20.38;8.98;;;2.40;99.90;;;;;;5069179;28;20044;-64
2022/12/07 05:56:11;;;;;;;23.45;8.73;;;2.40;99.90;;;;;;5070759;28;20488;-66
2022/12/07 06:01:21;;;;;;;15.73;8.32;;;2.50;99.90;;;;;;5063112;28;20079;-66
2022/12/07 06:03:47;;;;;;;17.02;8.13;;;2.40;99.90;;;;;;5072004;28;20047;-65
2022/12/07 06:06:13;;;;;;;24.40;9.40;;;2.40;99.90;;;;;;5086190;28;20028;-65
2022/12/07 06:08:39;;;;;;;20.70;8.75;;;2.30;99.90;;;;;;5074013;28;20498;-65
2022/12/07 06:13:49;;;;;;;17.77;7.57;;;2.10;99.90;;;;;;5076158;28;20074;-64
2022/12/07 06:16:15;;;;;;;18.80;8.75;;;2.10;99.90;;;;;;5069010;28;20076;-64
2022/12/07 06:18:41;;;;;;;15.32;8.63;;;2.20;99.90;;;;;;5074841;28;20066;-65
2022/12/07 06:21:07;;;;;;;18.42;8.82;;;2.20;99.90;;;;;;5073261;28;20028;-65
2022/12/07 06:23:33;;;;;;;17.50;9.02;;;2.40;99.90;;;;;;5066141;28;20027;-64
2022/12/07 06:25:58;;;;;;;24.02;9.23;;;2.50;99.90;;;;;;5068889;28;20526;-65
2022/12/07 06:28:24;;;;;;;17.27;8.88;;;2.60;99.90;;;;;;5073886;28;20032;-66
2022/12/07 06:30:58;;;;;;;17.45;8.32;;;2.70;99.90;;;;;;5068783;28;20032;-65
2022/12/07 06:33:24;;;;;;;18.98;9.00;;;2.80;99.90;;;;;;5062219;28;20047;-65
2022/12/07 06:35:51;;;;;;;18.55;8.18;;;2.90;99.90;;;;;;5067045;28;20029;-65
2022/12/07 06:38:17;;;;;;;15.40;7.47;;;2.80;99.90;;;;;;5067090;28;20074;-65
2022/12/07 06:40:42;;;;;;;19.63;9.40;;;2.80;99.90;;;;;;5071256;28;20028;-65
2022/12/07 06:43:08;;;;;;;16.90;8.27;;;2.90;99.90;;;;;;5069336;28;20067;-65
2022/12/07 06:45:34;;;;;;;18.48;8.88;;;2.90;99.90;;;;;;5072868;28;20126;-65
2022/12/07 06:48:00;;;;;;;18.90;8.52;;;2.90;99.90;;;;;;5066414;28;20055;-65
2022/12/07 06:50:26;;;;;;;14.63;8.13;;;2.90;99.90;;;;;;5069422;28;20128;-65
2022/12/07 06:52:52;;;;;;;24.25;9.48;;;3.00;99.90;;;;;;5069550;28;20103;-65
2022/12/07 06:55:18;;;;;;;19.90;9.55;;;3.10;99.90;;;;;;5068687;28;20043;-64
2022/12/07 06:57:44;;;;;;;17.50;8.98;;;3.10;99.90;;;;;;5068730;28;20020;-65
2022/12/07 07:00:10;;;;;;;18.77;8.52;;;3.10;99.90;;;;;;5069526;28;20028;-64
2022/12/07 07:02:36;;;;;;;21.20;8.98;;;3.20;99.90;;;;;;5067766;28;20111;-65
2022/12/07 07:05:03;;;;;;;17.08;8.75;;;3.20;99.90;;;;;;5072523;28;20067;-65
2022/12/07 07:07:29;;;;;;;17.25;8.60;;;3.20;99.90;;;;;;5067523;28;20104;-66
2022/12/07 07:09:55;;;;;;;16.25;8.73;;;3.20;99.90;;;;;;5071331;28;20111;-66
2022/12/07 07:12:21;;;;;;;19.60;8.63;;;3.20;99.90;;;;;;5066363;28;20119;-65
2022/12/07 07:14:46;;;;;;;19.23;8.95;;;3.30;99.90;;;;;;5071086;28;20131;-67
2022/12/07 07:17:13;;;;;;;17.58;8.32;;;3.30;99.90;;;;;;5068567;28;20024;-65
2022/12/07 07:19:39;;;;;;;16.33;8.18;;;3.30;99.90;;;;;;5066086;28;20028;-65
2022/12/07 07:22:05;;;;;;;16.50;8.32;;;3.30;99.90;;;;;;5066548;28;20374;-65
2022/12/07 07:24:31;;;;;;;21.90;9.70;;;3.30;99.90;;;;;;5066569;28;20476;-65
2022/12/07 07:26:57;;;;;;;15.82;7.88;;;3.40;99.90;;;;;;5076548;28;20032;-65
2022/12/07 07:29:23;;;;;;;15.68;8.70;;;3.40;99.90;;;;;;5066534;28;20455;-64
2022/12/07 07:31:48;;;;;;;16.27;9.32;;;3.40;99.90;;;;;;5068703;28;20063;-65
2022/12/07 07:34:14;;;;;;;16.33;8.45;;;3.40;99.90;;;;;;5071156;28;20033;-65
2022/12/07 07:36:40;;;;;;;17.48;8.82;;;3.40;99.90;;;;;;5072976;28;20040;-65
2022/12/07 07:39:06;;;;;;;18.63;8.55;;;3.50;99.90;;;;;;5071501;28;20519;-65
2022/12/07 07:41:32;;;;;;;13.32;8.07;;;3.50;99.90;;;;;;5073287;28;20099;-65
2022/12/07 07:43:58;;;;;;;17.13;8.70;;;3.50;99.90;;;;;;5073303;28;20044;-64
2022/12/07 07:46:24;;;;;;;13.73;8.05;;;3.60;99.90;;;;;;5071969;28;20029;-65
2022/12/07 07:48:49;;;;;;;20.27;8.50;;;3.60;99.90;;;;;;5083555;28;20024;-64
2022/12/07 07:51:15;;;;;;;17.92;8.77;;;3.60;99.90;;;;;;5072166;28;20495;-62
2022/12/07 07:53:41;;;;;;;13.32;8.43;;;3.60;99.90;;;;;;5066820;28;20020;-65
2022/12/07 07:56:07;;;;;;;14.38;7.80;;;3.60;99.90;;;;;;5075249;28;20059;-65
2022/12/07 07:58:33;;;;;;;12.30;7.57;;;3.60;99.90;;;;;;5074975;28;20035;-63
2022/12/07 08:01:06;;;;;;;14.65;7.90;;;3.60;99.90;;;;;;5073234;28;20028;-64
2022/12/07 08:03:32;;;;;;;13.38;7.70;;;3.70;99.90;;;;;;5069511;28;20047;-64
2022/12/07 08:05:58;;;;;;;15.38;8.73;;;3.60;99.90;;;;;;5071796;28;20372;-63
2022/12/07 08:08:24;;;;;;;14.80;8.38;;;3.70;99.90;;;;;;5065000;28;20112;-64
2022/12/07 08:10:50;;;;;;;16.85;8.10;;;3.70;99.90;;;;;;5068474;28;20027;-62
2022/12/07 08:13:18;;;;;;;15.60;8.18;;;3.70;99.90;;;;;;5073096;28;20021;-64
2022/12/07 08:15:46;;;;;;;13.23;7.65;;;3.70;99.90;;;;;;5076258;28;20083;-64
2022/12/07 08:18:12;;;;;;;12.48;7.13;;;3.70;99.90;;;;;;5074737;28;20028;-63
2022/12/07 08:20:40;;;;;;;10.98;7.20;;;3.70;99.90;;;;;;5070143;28;20023;-64
2022/12/07 08:23:07;;;;;;;19.05;7.28;;;3.70;99.90;;;;;;5072259;28;20056;-64
2022/12/07 08:25:33;;;;;;;12.77;7.20;;;3.80;99.90;;;;;;5070286;28;20024;-64
2022/12/07 08:28:00;;;;;;;15.82;7.28;;;3.70;99.90;;;;;;5063539;28;20503;-63
2022/12/07 08:30:29;;;;;;;15.13;7.55;;;3.70;99.90;;;;;;5066678;28;20033;-63
2022/12/07 08:32:56;;;;;;;12.80;7.57;;;3.80;99.90;;;;;;5064470;28;20029;-64
2022/12/07 08:35:22;;;;;;;12.65;8.20;;;3.70;99.90;;;;;;5062988;28;20036;-63
2022/12/07 08:37:48;;;;;;;16.33;7.13;;;3.80;99.90;;;;;;5061528;28;20031;-62
2022/12/07 08:40:15;;;;;;;12.10;6.82;;;3.80;99.90;;;;;;5067002;28;20029;-63
2022/12/07 08:42:44;;;;;;;11.00;6.95;;;3.80;99.90;;;;;;5063830;28;20388;-62
2022/12/07 08:45:12;;;;;;;13.43;6.68;;;3.80;99.90;;;;;;5062459;28;20032;-64
2022/12/07 08:47:43;;;;;;;15.32;7.85;;;3.90;99.90;;;;;;5059104;28;20100;-63
2022/12/07 08:50:11;;;;;;;15.73;7.20;;;3.90;99.90;;;;;;5069752;28;20024;-65
2022/12/07 08:52:38;;;;;;;14.68;6.55;;;4.00;99.90;;;;;;5067885;28;20056;-63
2022/12/07 08:55:05;;;;;;;10.63;6.32;;;4.00;99.90;;;;;;5067406;28;20036;-66
2022/12/07 08:57:33;;;;;;;12.85;6.40;;;4.00;99.90;;;;;;5067425;28;20035;-65
2022/12/07 08:59:59;;;;;;;12.02;7.22;;;4.00;99.90;;;;;;5068931;28;20028;-65
2022/12/07 09:02:25;;;;;;;14.75;6.57;;;4.00;99.90;;;;;;5064669;28;20033;-66
2022/12/07 09:04:51;;;;;;;9.13;5.38;;;4.00;99.90;;;;;;5060334;28;20071;-66
2022/12/07 09:07:16;;;;;;;10.35;5.82;;;4.10;99.90;;;;;;5058162;28;20025;-66
2022/12/07 09:09:42;;;;;;;9.13;5.50;;;4.10;99.90;;;;;;5067298;28;20027;-67
2022/12/07 09:12:08;;;;;;;13.00;5.93;;;4.10;99.90;;;;;;5068377;28;20033;-66
2022/12/07 09:14:34;;;;;;;9.73;6.07;;;4.10;99.90;;;;;;5068517;28;20475;-65
2022/12/07 09:17:11;;;;;;;13.73;6.20;;;4.20;99.90;;;;;;5070771;28;20029;-65
2022/12/07 09:19:38;;;;;;;10.38;5.53;;;4.20;99.90;;;;;;5062554;28;20056;-65
2022/12/07 09:22:04;;;;;;;12.45;5.70;;;4.20;99.90;;;;;;5067728;28;20139;-66
2022/12/07 09:24:31;;;;;;;12.52;6.10;;;4.30;99.90;;;;;;5065987;28;20028;-65
2022/12/07 09:26:57;;;;;;;12.82;5.88;;;4.40;99.90;;;;;;5070158;28;20032;-66
2022/12/07 09:29:23;;;;;;;11.52;6.22;;;4.50;99.90;;;;;;5068667;28;20056;-66
2022/12/07 09:31:49;;;;;;;11.02;5.68;;;4.50;99.90;;;;;;5069653;28;20060;-66
2022/12/07 09:34:15;;;;;;;16.35;7.53;;;4.60;99.90;;;;;;5067603;28;20455;-65
2022/12/07 09:36:42;;;;;;;12.32;5.90;;;4.50;99.90;;;;;;5069944;28;20036;-65
2022/12/07 09:39:08;;;;;;;16.40;6.93;;;4.40;99.90;;;;;;5070919;28;20056;-63
2022/12/07 09:41:39;;;;;;;13.48;6.30;;;4.40;99.90;;;;;;5067271;28;20977;-64
2022/12/07 09:44:10;;;;;;;11.00;5.77;;;4.40;99.90;;;;;;5070215;28;20034;-64
2022/12/07 09:46:39;;;;;;;7.57;4.45;;;4.50;99.90;;;;;;5068300;28;20542;-64
2022/12/07 09:49:09;;;;;;;14.52;6.35;;;4.50;99.90;;;;;;5072964;28;20025;-64
2022/12/07 09:51:35;;;;;;;11.23;5.75;;;4.60;99.90;;;;;;5061751;28;20037;-64
2022/12/07 09:54:02;;;;;;;11.68;5.60;;;4.60;99.90;;;;;;5067434;28;20071;-64
2022/12/07 09:56:30;;;;;;;14.30;5.72;;;4.60;99.90;;;;;;5068386;28;20094;-64
2022/12/07 09:59:01;;;;;;;12.95;5.60;;;4.70;99.90;;;;;;5070859;28;20029;-63
2022/12/07 10:01:32;;;;;;;10.95;5.40;;;4.70;99.90;;;;;;5068059;28;20115;-65
2022/12/07 10:04:16;;;;;;;12.48;5.38;;;4.70;99.90;;;;;;5063921;28;20021;-64
2022/12/07 10:06:42;;;;;;;8.90;5.47;;;4.80;99.90;;;;;;5063808;28;20024;-64
2022/12/07 10:09:16;;;;;;;7.50;4.72;;;4.80;99.90;;;;;;5068201;28;20029;-64
2022/12/07 10:12:00;;;;;;;9.95;5.63;;;4.90;99.90;;;;;;5063437;28;20031;-64
2022/12/07 10:14:29;;;;;;;9.20;4.90;;;5.00;99.90;;;;;;5062176;28;20151;-64
2022/12/07 10:16:55;;;;;;;14.43;5.13;;;5.10;99.90;;;;;;5068097;28;20052;-65
2022/12/07 10:19:27;;;;;;;9.63;4.82;;;5.20;99.90;;;;;;5061283;28;20024;-64
2022/12/07 10:22:11;;;;;;;10.50;4.63;;;5.30;99.90;;;;;;5067613;28;20055;-63
2022/12/07 10:24:42;;;;;;;12.30;5.15;;;5.40;99.90;;;;;;5062329;28;20488;-63
2022/12/07 10:27:32;;;;;;;10.13;4.57;;;5.40;99.90;;;;;;5065185;28;20499;-63
2022/12/07 10:29:59;;;;;;;13.38;4.72;;;5.30;99.90;;;;;;5059694;28;20503;-63
2022/12/07 10:32:33;;;;;;;12.55;5.38;;;5.20;99.90;;;;;;5065836;28;20032;-64
2022/12/07 10:35:23;;;;;;;12.50;4.63;;;5.20;99.90;;;;;;5069125;28;20121;-64
2022/12/07 10:37:50;;;;;;;10.43;4.45;;;5.30;99.90;;;;;;5064684;28;20035;-64
2022/12/07 10:40:36;;;;;;;9.18;4.35;;;5.40;99.90;;;;;;5067145;28;20059;-63
2022/12/07 10:43:04;;;;;;;11.05;4.43;;;5.60;99.90;;;;;;5067179;28;20377;-64
2022/12/07 10:45:30;;;;;;;15.30;4.95;;;5.70;99.90;;;;;;5059784;28;20123;-64
2022/12/07 10:48:08;;;;;;;5.28;3.65;;;5.80;99.90;;;;;;5060562;28;20059;-64
2022/12/07 10:50:59;;;;;;;6.78;4.13;;;5.70;99.90;;;;;;5064352;28;20464;-63
2022/12/07 10:53:29;;;;;;;8.77;3.95;;;5.70;99.90;;;;;;5061843;28;20032;-64
2022/12/07 10:56:14;;;;;;;29.63;5.80;;;5.70;99.90;;;;;;5058895;28;20120;-63
2022/12/07 10:58:45;;;;;;;8.00;3.80;;;5.70;99.90;;;;;;5051675;28;20048;-63
2022/12/07 11:01:26;;;;;;;15.95;4.07;;;5.70;99.90;;;;;;5064413;28;20056;-64
2022/12/07 11:04:10;;;;;;;8.32;3.63;;;5.80;99.90;;;;;;5066417;28;20396;-64
2022/12/07 11:06:45;;;;;;;7.63;3.53;;;5.90;99.90;;;;;;5068447;28;20068;-64
2022/12/07 11:09:47;;;;;;;7.07;3.85;;;5.90;99.90;;;;;;5067500;28;20037;-65
2022/12/07 11:12:23;;;;;;;19.17;5.40;;;5.90;99.90;;;;;;5063987;28;20039;-63
2022/12/07 11:15:06;;;;;;;12.70;4.38;;;6.00;99.90;;;;;;5073040;28;20511;-63
2022/12/07 11:17:44;;;;;;;16.60;5.90;;;6.10;99.90;;;;;;5068037;28;20041;-63
2022/12/07 11:20:19;;;;;;;13.13;4.55;;;6.20;99.90;;;;;;5071232;28;20051;-64
2022/12/07 11:22:57;;;;;;;7.18;4.07;;;6.20;99.90;;;;;;5068328;28;20495;-63
2022/12/07 11:25:31;;;;;;;7.57;4.65;;;6.20;99.90;;;;;;5070675;28;20033;-63
2022/12/07 11:28:34;;;;;;;22.27;5.32;;;6.40;99.90;;;;;;5068604;28;20111;-64
2022/12/07 11:31:05;;;;;;;13.38;4.20;;;6.60;99.90;;;;;;5068571;28;20025;-64
2022/12/07 11:33:40;;;;;;;17.55;5.80;;;6.60;99.90;;;;;;5069586;28;20031;-63
2022/12/07 11:36:46;;;;;;;7.90;3.92;;;6.50;99.90;;;;;;5068083;28;20032;-64
2022/12/07 11:39:21;;;;;;;11.07;4.35;;;6.50;99.90;;;;;;5071953;28;20365;-65
2022/12/07 11:42:02;;;;;;;10.80;5.20;;;7.00;99.90;;;;;;5061589;28;20028;-64
2022/12/07 11:44:35;;;;;;;8.55;4.22;;;7.70;99.90;;;;;;5073487;28;20028;-63
2022/12/07 11:47:15;;;;;;;14.55;4.82;;;7.60;99.90;;;;;;5069424;28;20166;-64
2022/12/07 11:49:51;;;;;;;9.88;4.22;;;7.90;99.90;;;;;;5068347;28;20021;-63
2022/12/07 11:52:30;;;;;;;17.45;4.82;;;8.60;99.90;;;;;;5068370;28;20033;-64
2022/12/07 11:54:59;;;;;;;7.97;4.40;;;8.40;99.90;;;;;;5065760;28;20043;-63
2022/12/07 11:57:33;;;;;;;9.85;4.80;;;8.10;99.90;;;;;;5067179;28;20024;-64
2022/12/07 12:00:11;;;;;;;13.32;4.32;;;8.20;99.90;;;;;;5072015;28;20028;-64
2022/12/07 12:02:46;;;;;;;12.65;4.97;;;7.70;99.90;;;;;;5063231;28;20033;-64
2022/12/07 12:05:25;;;;;;;13.43;5.07;;;7.30;99.90;;;;;;5072019;28;20035;-64
2022/12/07 12:08:00;;;;;;;12.88;4.70;;;7.40;99.90;;;;;;5070409;28;20494;-64
2022/12/07 12:10:42;;;;;;;7.30;3.78;;;7.50;99.90;;;;;;5066295;28;20033;-63
2022/12/07 12:13:31;;;;;;;17.73;4.72;;;7.80;99.90;;;;;;5062714;28;20044;-64
2022/12/07 12:16:20;;;;;;;11.82;4.75;;;8.20;99.90;;;;;;5064189;28;21088;-64
2022/12/07 12:19:40;;;;;;;13.60;5.05;;;8.60;99.90;;;;;;5069487;28;20028;-64
2022/12/07 12:22:18;;;;;;;9.15;4.57;;;9.10;99.90;;;;;;5029987;28;20045;-66
2022/12/07 12:24:50;;;;;;;13.75;4.15;;;8.90;99.90;;;;;;5032827;28;20035;-64
2022/12/07 12:27:36;;;;;;;;;;;9.40;99.90;;;;;;5025196;28;20065;-64
2022/12/07 12:30:05;;;;;;;8.40;3.63;;;9.60;99.90;;;;;;5034608;28;19967;-64
2022/12/07 12:32:44;;;;;;;21.23;4.35;;;9.30;99.90;;;;;;5031660;28;20134;-63
2022/12/07 12:35:31;;;;;;;15.55;4.93;;;8.40;99.90;;;;;;5032664;28;20044;-63
2022/12/07 12:38:17;;;;;;;8.63;3.75;;;8.10;99.90;;;;;;5028313;28;20034;-65
2022/12/07 12:40:43;;;;;;;5.32;3.60;;;8.20;99.90;;;;;;5029362;28;20143;-61
2022/12/07 12:43:41;;;;;;;7.88;3.97;;;8.30;99.90;;;;;;5027520;28;20041;-65
2022/12/07 12:46:29;;;;;;;9.32;4.63;;;8.60;99.90;;;;;;5029493;28;20096;-65
2022/12/07 12:49:16;;;;;;;26.85;6.80;;;8.80;99.90;;;;;;5027927;28;20037;-64
2022/12/07 12:51:46;;;;;;;14.23;4.32;;;8.70;99.90;;;;;;5020337;28;20029;-65
2022/12/07 12:54:21;;;;;;;17.45;4.28;;;8.70;99.90;;;;;;5029755;28;20060;-64
2022/12/07 12:57:12;;;;;;;8.15;4.32;;;8.40;99.90;;;;;;5053527;28;20416;-63
2022/12/07 12:59:53;;;;;;;6.03;3.33;;;7.80;99.90;;;;;;5062149;28;20056;-64
2022/12/07 13:02:37;;;;;;;5.38;3.70;;;7.90;99.90;;;;;;5068023;28;20037;-64
2022/12/07 13:05:09;;;;;;;8.65;3.83;;;8.20;99.90;;;;;;5064841;28;20035;-65
2022/12/07 13:07:44;;;;;;;10.30;3.83;;;8.40;99.90;;;;;;5068507;28;20093;-64
2022/12/07 13:10:31;;;;;;;11.18;3.55;;;8.60;99.90;;;;;;5066357;28;20034;-65
2022/12/07 13:13:02;;;;;;;9.07;3.47;;;8.90;99.90;;;;;;5069948;28;20457;-64
2022/12/07 13:15:57;;;;;;;7.88;3.83;;;9.10;99.90;;;;;;5066694;28;20032;-65
2022/12/07 13:18:32;;;;;;;8.27;3.70;;;9.00;99.90;;;;;;5056306;28;20068;-65